T³ - TableTop Tournaments
Welcome Guest. Please log in or register.
  

Login with nickname/ID and password (Lost password?).
AdvertGames-Island
Follow us:facebooktwitterrss | supportContact

Tournament Overview

Register your own tournamentTo the map

Please select a game system:


"Warhammer Age of Sigmar"-tournaments in the next months:

DateTournamentLocationSeats
October 2022
2022-10-01Teams (x4) AoS d'Octobre à UtopolysF59370 Mons En Baroeul45/24
2022-10-01GRABUJF33138 Lanton26/18
2022-10-01Games Island - Champions of Sigmar IXD95032 Hof17/24
2022-10-01Tournoi Aos, Le repaire de l'ogre, octobre 2022F42130 Boën Sur Lignon15/18
2022-10-011. Moschpit Elbflorenz - Age of Sigmar TurnierD01069 Dresden18/16
2022-10-011. TC-MG Age of Sigmar "Rock im Garten" TurnierD41063 Mönchengladbach8/10
2022-10-08Coupe de France Solo 2022/2023 : Etape Nord-EstF57100 Thionville44/40
2022-10-08Lay low the Tyrants 7(hot)(support)D53757 Sankt Augustin23/14
2022-10-082. ScheunenrangelnD50126 Bergheim-Glesch40/24
2022-10-09Bastards Ath War Age of Sigmar IIB7802 Ath67/40
2022-10-15Coupe de France Solo 2022/2023 : Etape Nord-OuestF35700 Rennes50/40
2022-10-15FINALE 2022F95560 Monsoult46/48
2022-10-15Barnyard Bash 1500 Harvest EditionA4483 Hargelsberg20/18
2022-10-16Le donjon de Sigmar - Le DARK reçoit !F62100 Calais38/30
2022-10-22Age of Gallicus - Tome 1F54000 Nancy37/20
2022-10-22AoS: Strategenhammer: beim dritten Mal wird’s endlich…D85221 Dachau41/24
2022-10-22AOSSE Autumn Edition 2022F42100 Saint-Étienne42/32
2022-10-22Teams (x6) AoS d'Octobre à UtopolysF59370 Mons En Baroeul26/24
2022-10-221. AoS Scharmützel im Outer RimD78532 Tuttlingen9/18
2022-10-22Bones&Dice Championship(support)D25554 Wilster8/10
2022-10-221st annual Siegerland OpenD57072 Siegen35/20
2022-10-23Coupe de France Solo 2022/2023 : Etape Ile-de-FranceF94240 L'haÿ Les Roses38/40
2022-10-23Le repaire des Trolls(support)F66350 Toulouges11/18
2022-10-23AoS Halloween Special(support)A2700 Wiener Neustadt22/24
2022-10-23Crimson Thunder 03D01099 Dresden10/10
2022-10-29La Clinique Des SquigsF13113 Lamanon23/24
2022-10-29French Wargame Café AOS – n2 – solo 2000 pointsF75010 Paris59/32
2022-10-29La Meuleuse Occitane IIF31600 Muret52/30
2022-10-29LEGIONS VIIB2050 Linkeroever1/18
2022-10-29AOS TABLERAZE TOURNAMENT Octobre 2022F34000 Montpellier9/10
2022-10-301. Ulmer Fluffbunny TurnierD89075 Ulm16/16
November 2022
2022-11-05VII. Age of OSnaD49082 Osnabrück58/32
2022-11-05Les Gobs GTB4100 Seraing33/32
2022-11-05Coupe de France Solo 2022/2023 : Etape CentreF36000 Chateauroux0/44
2022-11-05Age of Griffons 2eme EditionF33800 Bordeaux23/32
2022-11-05Coupe de France Team : Etape PACAF83370 Fréjus0/64
2022-11-05Games Island - Champions of Sigmar XD95032 Hof5/24
2022-11-05La Spirale du Destin 2022 - Rencontre multi-jeux (AOS)CH1896 Vouvry10
2022-11-05Lay low the Tyrants 8(support)D56414 Hundsangen33/20
2022-11-05Müggelhammer 2D12559 Berlin28/16
2022-11-123. AoS Eastside ClashD04315 Leipzig23/24
2022-11-1223. Würfelgötter AoS Turnier(support)D45894 Gelsenkirchen51/32
2022-11-12Tales in the Wood VII(hot)A6675 Tannheim28/40
2022-11-13Sparow de l'oeil Glauque 2022 AOSF35700 Rennes20/16
2022-11-13Bash'O'Poulpe : Team UpF74930 Reignier-Esery7/36
2022-11-13Wargame Club des Pierres Dorées AOS 2022F69380 Chazay D'azergues15/10
2022-11-19VIII. Age of OSnaD49082 Osnabrück56/40
2022-11-192. Elbinferno Magdeburg(support)D39126 Magdeburg21/14
2022-11-20Crown of Champions - Winter is comingD69126 Heidelberg38/26
2022-11-20Bastards Ath War Age of Sigmar IIIB7802 Ath66/40
2022-11-20Le Kumité - Automne 2022F69008 Lyon0/24
2022-11-26Coupe de France Solo 2022/2023 : Etape Sud-OuestF33138 Lanton0/40
2022-11-26The Crusade II (AoS) - On the bloody planes of GhurB8200 Sint-Michiels48/40
2022-11-263. ScheunenrangelnD50126 Bergheim-Glesch31/30
2022-11-26Age of SchloßbergA8020 Graz14/16
2022-11-27Doublette AoS de Novembre à UtopolysF59370 Mons En Baroeul21/24
December 2022
2022-12-03Les Malemouleux pour le Téléthon 2022F69380 Lozanne0/80
2022-12-03Age of Ragnarök IID63741 Aschaffenburg17/18
2022-12-04FLUFF & DARK DAY 2022(support)F62100 Calais13/24
2022-12-04Mornes Plaines IIB1348 Louvain-La-Neuve0/12
2022-12-04Torneo della Torre - Age of Sigmar - 2022CH6616 Losone11/10
2022-12-04The Leicester GT(hot)UKLeicester LE1 3U200
2022-12-10Lëtz play AOS in team(rate)L1469 Luxembourg87/100
January 2023
2023-01-07Coupe de France Team 2022/2023 : Etape Nord-EstF62100 Calais0/64
2023-01-073. Hellertal Heads UpD57562 Herdorf8/16
2023-01-08Tower Conquest AoS VB7800 Ath29/32
2023-01-141 oldenburger ClashD26121 Oldenburg21/24
2023-01-21Coupe de France Team 2022/2023 : Etape Nord-OuestF50120 Équeurdreville-Hainneville0/80
2023-01-22Lay low the Tyrants 9(support)D53757 Sankt Augustin13/14
February 2023
2023-02-11The Crusade III (AoS) - Ruin and DestructionB8200 Sint-Michiels17/40
2023-02-251. Deutsche AoS Club ChampionshipD34281 Gudensberg91/100
March 2023
2023-03-11GTC 2023 AoS (Teams of 8)D49324 Melle5/192
2023-03-11Coupe de France Team 2022/2023 : Etape Sud-OuestF31100 Toulouse0/64
2023-03-25Coupe de France Team 2022/2023 : Etape IDF-CentreF36000 Chateauroux0/64
April 2023
2023-04-22Coupe de France Team 2022/2023 : Finale Sud-EstF83370 Saint Aygulf0/64
May 2023
2023-05-06Lay low the Tyrants 10(support)D53757 Sankt Augustin7/14
2023-05-15Mornes Plaines IIIB1348 Louvain-La-Neuve0/12
June 2023
2023-06-17Malemoule Fest - Le Choc des Régions(hot)F69000 - - -56/300
September 2023
2023-09-02Hammers of Ortenau 3.0D77652 Offenburg6/28
November 2023
2023-11-05Bastards Ath War AoS Battle Brothers 4B7802 Ath8/40
Calendar
Info: The date of each tournament can be download as an ICS-file by clicking on the date. In addition we offer a complete tournament calendar: ICS (iCal: webcal). What is ICS?

You can subscribe to the calendar with an ICS-compatible software (like Mozilla/Calendar or iCal).

past "Warhammer Age of Sigmar"-Tournaments (max. the last 20):

DateTournamentLocationSeats
todayWolpertinger 1. AOS TurnierD33330 Gütersloh12/12
2022-09-242. Erfurter Puffbohnencup Age of SigmarD99086 Erfurt16/24
2022-09-24Mini-fighting AoS 1250CH1003 Lausanne7/22
2022-09-185ème Tournoi Age of Sigmar en doublette 2x1000 points Hobby MaxF59800 Lille12/12
2022-09-18[QC] Tournoi Débutant : AOSF25000 Besançoncanceled
2022-09-18Immaterium Café Tournament AoS #4F83000 Touloncanceled
2022-09-18Tournoi Age of Sigmar - Wargame SpiritF38000 Grenoble18/18
2022-09-18The Arcana Age of Sigmar Battle 2022!CH1110 Morges32/40
2022-09-18OCB 2. AoS TurnierCH3008 Bern4/14
2022-09-18Raccoon RumbleD34246 Vellmar120/200
2022-09-17Crown of Champions - Fallende Blätter, blitzende HämmerD69126 Heidelberg16/26
2022-09-11French Wargame Café AOS – n1 – solo 2000 pointsF75010 Paris0/34
2022-09-11La Megabash - Automne 2022F69380 Lozanne60/72
2022-09-10Age of Asgard - Septembre 2022F76000 Rouen8/10
2022-09-101. Elbinferno MagdeburgD39126 Magdeburg10/10
2022-09-10[AoS] Le temps des monstres...F38000 Grenoble0/8
2022-09-04Objectif AoSB4020 Liège9/16
2022-09-04Carnages aux Carnutes 1 : le 8e PiétinéF28000 Chartres22/22
2022-09-03Hammers of Ortenau Vol. 2.2D77652 Offenburg22/28
2022-08-28Tournoi Aos, Le repaire de l'ogre, août 2022F42130 Boën Sur Lignon16/16
Show complete list


Tabletops: A Call to Arms: Star Fleet | A Fantastic Saga | A Song of Ice & Fire | Adeptus Titanicus | Aeronautica Imperialis | Âge des Escarmouches | Alkemy | Anima Tactics | Arcane Legions | Arena Deathmatch | Arena Rex | Aristeia! | Armageddon (Magora etc.) | Armalion | Armati | Astrahys | AT-43 | Babylon 5 | Batman Miniature Game | Battlefield Evolution | Battlefleet Gothic | BattleTech: Alpha Strike | Behind Omaha | Beyond the Gates of Antares | Black Seas - The Age Of Sail | Blackwater Gulch | Blitz Bowl | Blitzkrieg Commander | Blood & Plunder | Blood Bowl | Blood Red Skies | Bloodfields | Blücher | Bolt Action | Briskars | Bushido | By Fire and Sword | Caeris | Carnevale | Celtos | Chain of Command | Chronopia | Clan War | Clash of Empires | Classic BattleTech | Confrontation 3/3.5 | Confrontation: AoR | Congo | Conquest - The Last Argument of Kings | Conquest: First Blood | D&D Attack Wing | Dark Age | Darklands | De Bellis Antiquitatis | De Bellis Magistrorum Militum | De Bellis Multitudinis | Dead Man's Hand | Deadzone | DeepWars | Demonworld | Dracula's America | Drakerys | Dreadball | Dropfleet Commander | Dropzone Commander | Dust 1947 | Dust Tactics Battlefield | Dust Warfare | Dystopian Legions | Dystopian Wars | Eden | Epic Armageddon | Ex Illis | Fallout: Wasteland Warfare | Fantasy Warriors | Fearless | Field of Glory | Field of Glory - Ancient and Medieval | Field of Glory - Napoleonic | Field of Glory - Renaissance | Fire and Fury | Firestorm Armada | Firestorm Planetfall | Flames of War | Fleet Commander | Flintloque | Force on Force | Freebooter's Fate | Frères d'Armes | Frostgrave | Furie | Gangs of Mega-City One | Gangs of Rome | Gaslands | Gear Krieg | Godslayer | Godtear | Goetterdaemmerung | Golgotha | Gorkamorka | Guild Ball | Hail Caesar | Heavy Gear Blitz | Hell Dorado | Historical Tabletops (WRG-6th) | Hordes of the Things | Impetus | Infinity | Jovian Chronicles | Judgement | Khârn-Âges | Kings of War | Kings of War Vanguard | Kugelhagel | L'Art de la Guerre | Le Retour des Dieux | Legends of the High Seas | Legends of the Old West | Malifaux | Man O'War | Mars Attacks - The Miniatures Game | Mars: Code Aurora | Marvel Universe Miniature Game | Marvel: Crisis Protocol | Masters of The Universe: Battleground | MechWarrior: Dark Age | Metropolis | Middle-earth Strategy Battle Game | Monsterpocalypse | Moonstone | Mordheim | Mortal Gods | Mortebrume | Mortem et Gloriam | Muskets & Tomahawks | Mutant Chronicles Miniature Game | Mythic Battles: Pantheon | Necromunda | Nemesis | NetEpic | Okko, Era of the Asagiri | Operation World War Two | OPR Age of Fantasy | OPR Age of Fantasy: Regiments | OPR Age of Fantasy: Skirmish | OPR Grimdark Future | OPR Grimdark Future: Firefight | Pirates of the Spanish Main | Pulp Alley | Pulp City | Rapture | Relic Knights | Rezolution | Riot Quest | Rumbleslam | Runewars Miniatures Game | SAGA | Schicksalspfade | Secrets of the Third Reich | Shadow War: Armageddon | ShadowSea | Sharp Practice | Skytear | SMOG, The Thirteenth Hour | Space Hulk | Star Trek: Attack Wing | Star Wars Miniatures | Star Wars: Armada | Star Wars: Imperial Assault | Star Wars: Legion | Star Wars: X-Wing Miniatures Game | Starship Troopers | Steinhagel | Street Fighter: The Miniatures Game | Summoners | Super Fantasy Brawl | Tabletop Convention | Tanks | Team Yankee | Test of Honour | The 9th Age: Fantasy Battles | The Drowned Earth | The Uncharted Seas | The Walking Dead: All Out War | Time of Legends: Joan of Arc | Tomorrow's War | Urban War | Victory at Sea | War in the Middle Ages | War of the Ring | Warcanto | Warcaster: Neo-Mechanika | Warfleets: FTL | WarGods | Warhammer 30K: The Horus Heresy | Warhammer 40K | Warhammer 40K: Kill Team | Warhammer Age of Sigmar | Warhammer Age of Sigmar: Skirmish | Warhammer Age of Sigmar: Warcry | Warhammer Ancient Battles | Warhammer Armies Project | Warhammer Fantasy Battles | Warhammer Underworlds | Warlord | Warmachine/Hordes | Warmaster | Warmaster Ancients | Warthrone | Warzone | Wild West Exodus | Wings of Glory | Wolsung SSG | World of Warcraft Miniatures Game | Wrath of Kings


©2004-2022. T³ is operated by Althaus.IT.